createdAt,value
2018-07-20T00:01:05.042Z,53.50
2018-07-20T00:03:32.237Z,53.70
2018-07-20T00:05:59.338Z,53.80
2018-07-20T00:08:26.460Z,54.10
2018-07-20T00:10:53.571Z,53.90
2018-07-20T00:13:20.791Z,54.20
2018-07-20T00:15:47.915Z,54.40
2018-07-20T00:18:15.339Z,54.50
2018-07-20T00:20:42.499Z,55.10
2018-07-20T00:23:09.625Z,54.20
2018-07-20T00:25:36.802Z,53.90
2018-07-20T00:28:04.229Z,54.50
2018-07-20T00:30:31.461Z,54.60
2018-07-20T00:32:58.594Z,54.80
2018-07-20T00:35:25.703Z,54.60
2018-07-20T00:37:52.831Z,54.30
2018-07-20T00:40:19.942Z,54.50
2018-07-20T00:42:47.051Z,54.50
2018-07-20T00:45:14.168Z,55.10
2018-07-20T00:47:41.279Z,55.40
2018-07-20T00:50:08.627Z,55.60
2018-07-20T00:52:35.822Z,55.80
2018-07-20T00:55:03.084Z,55.90
2018-07-20T00:57:30.280Z,55.90
2018-07-20T00:59:57.403Z,55.80
2018-07-20T01:02:24.539Z,55.50
2018-07-20T01:04:51.681Z,55.80
2018-07-20T01:07:18.812Z,56.00
2018-07-20T01:09:45.919Z,55.80
2018-07-20T01:14:40.201Z,55.90
2018-07-20T01:17:07.358Z,55.70
2018-07-20T01:19:34.818Z,55.80
2018-07-20T01:22:02.023Z,55.60
2018-07-20T01:24:29.151Z,55.80
2018-07-20T01:26:56.254Z,55.70
2018-07-20T01:29:23.366Z,56.00
2018-07-20T01:31:50.472Z,55.90
2018-07-20T01:34:17.576Z,55.80
2018-07-20T01:36:44.669Z,55.80
2018-07-20T01:39:11.789Z,56.00
2018-07-20T01:41:39.398Z,56.00
2018-07-20T01:44:06.781Z,56.20
2018-07-20T01:46:34.069Z,56.20
2018-07-20T01:49:01.475Z,56.40
2018-07-20T01:51:28.597Z,56.70
2018-07-20T01:53:55.689Z,56.70
2018-07-20T01:56:22.811Z,57.10
2018-07-20T01:58:49.936Z,57.00
2018-07-20T02:01:17.048Z,57.50
2018-07-20T02:03:44.166Z,57.40
2018-07-20T02:06:11.298Z,57.50
2018-07-20T02:08:38.505Z,57.70
2018-07-20T02:11:05.718Z,58.10
2018-07-20T02:13:32.879Z,58.20
2018-07-20T02:16:00.018Z,58.50
2018-07-20T02:18:27.139Z,58.30
2018-07-20T02:20:54.267Z,57.70
2018-07-20T02:23:22.290Z,57.70
2018-07-20T02:25:49.403Z,57.60
2018-07-20T02:28:16.537Z,57.70
2018-07-20T02:30:49.786Z,58.10
2018-07-20T02:33:16.895Z,56.80
2018-07-20T02:35:44.013Z,56.40
2018-07-20T02:38:11.122Z,56.10
2018-07-20T02:40:38.256Z,56.00
2018-07-20T02:43:05.416Z,55.10
2018-07-20T02:45:32.566Z,55.30
2018-07-20T02:47:59.755Z,56.20
2018-07-20T02:50:27.005Z,56.40
2018-07-20T02:52:54.123Z,56.30
2018-07-20T02:55:21.311Z,56.40
2018-07-20T02:57:48.459Z,56.80
2018-07-20T03:00:15.574Z,56.20
2018-07-20T03:02:42.695Z,56.60
2018-07-20T03:05:09.840Z,56.70
2018-07-20T03:07:36.953Z,57.20
2018-07-20T03:10:04.275Z,58.50
2018-07-20T03:12:31.427Z,58.20
2018-07-20T03:14:58.531Z,58.10
2018-07-20T03:17:25.670Z,57.50
2018-07-20T03:19:52.783Z,57.50
2018-07-20T03:22:20.007Z,57.70
2018-07-20T03:24:47.146Z,57.60
2018-07-20T03:27:14.554Z,57.80
2018-07-20T03:29:41.674Z,57.90
2018-07-20T03:32:08.778Z,58.40
2018-07-20T03:34:35.875Z,58.50
2018-07-20T03:37:03.011Z,59.10
2018-07-20T03:39:30.114Z,58.60
2018-07-20T03:41:57.247Z,58.70
2018-07-20T03:44:24.374Z,58.80
2018-07-20T03:49:18.970Z,58.90
2018-07-20T03:51:46.214Z,59.20
2018-07-20T03:54:13.367Z,59.00
2018-07-20T03:56:40.507Z,59.00
2018-07-20T03:59:07.651Z,58.90
2018-07-20T04:01:34.760Z,58.60
2018-07-20T04:04:01.864Z,58.20
2018-07-20T04:06:28.987Z,57.80
2018-07-20T04:08:56.090Z,57.70
2018-07-20T04:11:23.207Z,57.00
2018-07-20T04:13:50.399Z,56.60
2018-07-20T04:16:17.574Z,56.20
2018-07-20T04:18:44.739Z,55.80
2018-07-20T04:21:11.877Z,55.60
2018-07-20T04:23:38.996Z,55.40
2018-07-20T04:26:06.143Z,55.40
2018-07-20T04:28:33.263Z,55.20
2018-07-20T04:31:00.376Z,55.40
2018-07-20T04:33:27.471Z,55.60
2018-07-20T04:35:54.600Z,56.10
2018-07-20T04:38:21.734Z,55.30
2018-07-20T04:43:16.095Z,55.40
2018-07-20T04:45:43.220Z,55.30
2018-07-20T04:48:10.355Z,55.20
2018-07-20T04:50:37.914Z,55.20
2018-07-20T04:53:05.106Z,55.60
2018-07-20T04:55:32.227Z,54.80
2018-07-20T04:57:59.347Z,55.10
2018-07-20T05:00:26.458Z,55.00
2018-07-20T05:02:53.584Z,54.70
2018-07-20T05:07:47.885Z,54.40
2018-07-20T05:10:15.499Z,54.40
2018-07-20T05:12:42.797Z,54.10
2018-07-20T05:15:09.974Z,54.20
2018-07-20T05:17:37.231Z,54.20
2018-07-20T05:20:04.435Z,54.30
2018-07-20T05:22:31.563Z,53.90
2018-07-20T05:24:58.688Z,54.10
2018-07-20T05:27:25.835Z,53.40
2018-07-20T05:29:53.002Z,53.50
2018-07-20T05:32:20.191Z,53.80
2018-07-20T05:34:47.407Z,53.50
2018-07-20T05:37:14.647Z,52.60
2018-07-20T05:39:41.759Z,51.80
2018-07-20T05:42:08.875Z,49.80
2018-07-20T05:44:35.990Z,48.10
2018-07-20T05:47:03.143Z,46.20
2018-07-20T05:49:30.280Z,44.60
2018-07-20T05:51:57.430Z,44.00
2018-07-20T05:54:24.595Z,43.80
2018-07-20T05:56:51.754Z,44.10
2018-07-20T05:59:18.981Z,43.90
2018-07-20T06:01:46.404Z,44.40
2018-07-20T06:04:13.569Z,43.20
2018-07-20T06:06:40.703Z,42.70
2018-07-20T06:09:09.183Z,42.20
2018-07-20T06:11:36.362Z,41.70
2018-07-20T06:14:03.529Z,42.10
2018-07-20T06:16:30.622Z,42.40
2018-07-20T06:18:57.747Z,42.60
2018-07-20T06:21:24.908Z,42.20
2018-07-20T06:23:52.197Z,42.00
2018-07-20T06:26:19.547Z,41.90
2018-07-20T06:28:46.755Z,41.10
2018-07-20T06:31:13.986Z,39.90
2018-07-20T06:33:41.125Z,37.70
2018-07-20T06:36:08.511Z,37.50
2018-07-20T06:38:35.635Z,36.40
2018-07-20T06:41:02.775Z,35.80
2018-07-20T06:43:29.913Z,32.50
2018-07-20T06:45:57.051Z,29.90
2018-07-20T06:48:24.181Z,28.60
2018-07-20T06:50:51.406Z,27.70
2018-07-20T06:53:18.847Z,26.80
2018-07-20T06:55:46.077Z,25.70
2018-07-20T06:58:13.195Z,25.20
2018-07-20T07:00:40.330Z,25.30
2018-07-20T07:03:07.463Z,25.20
2018-07-20T07:05:34.562Z,24.40
2018-07-20T07:08:01.680Z,25.30
2018-07-20T07:10:28.843Z,25.30
2018-07-20T07:12:56.023Z,25.70
2018-07-20T07:15:23.180Z,24.80
2018-07-20T07:17:50.383Z,23.70
2018-07-20T07:20:17.638Z,23.10
2018-07-20T07:22:45.450Z,22.40
2018-07-20T07:25:12.567Z,22.50
2018-07-20T07:27:39.698Z,23.40
2018-07-20T07:30:06.833Z,22.40
2018-07-20T07:32:33.970Z,22.70
2018-07-20T07:35:01.143Z,23.80
2018-07-20T07:37:28.299Z,24.80
2018-07-20T07:39:55.464Z,25.40
2018-07-20T07:42:22.619Z,25.80
2018-07-20T07:44:50.070Z,24.80
2018-07-20T07:47:17.251Z,23.70
2018-07-20T07:49:44.430Z,23.60
2018-07-20T07:52:11.599Z,24.60
2018-07-20T07:54:38.743Z,24.70
2018-07-20T07:57:05.904Z,24.90
2018-07-20T07:59:33.059Z,24.40
2018-07-20T08:02:00.200Z,23.40
2018-07-20T08:04:27.327Z,22.90
2018-07-20T08:06:54.478Z,22.50
2018-07-20T08:09:21.704Z,22.70
2018-07-20T08:11:49.153Z,22.90
2018-07-20T08:14:16.408Z,23.20
2018-07-20T08:16:43.578Z,23.20
2018-07-20T08:19:10.703Z,23.80
2018-07-20T08:21:37.847Z,23.60
2018-07-20T08:24:05.220Z,23.50
2018-07-20T08:26:32.361Z,24.10
2018-07-20T08:28:59.519Z,24.30
2018-07-20T08:31:26.711Z,23.70
2018-07-20T08:33:53.879Z,25.10
2018-07-20T08:36:21.162Z,25.30
2018-07-20T08:38:48.420Z,24.70
2018-07-20T08:41:15.758Z,24.20
2018-07-20T08:43:43.134Z,24.60
2018-07-20T08:46:10.283Z,24.60
2018-07-20T08:48:37.569Z,24.30
2018-07-20T08:51:04.708Z,23.70
2018-07-20T08:53:31.912Z,23.40
2018-07-20T08:55:59.072Z,23.00
2018-07-20T08:58:26.231Z,23.30
2018-07-20T09:00:53.419Z,22.80
2018-07-20T09:03:20.731Z,23.40
2018-07-20T09:05:47.976Z,23.90
2018-07-20T09:08:15.147Z,24.00
2018-07-20T09:10:42.295Z,24.50
2018-07-20T09:15:36.646Z,24.10
2018-07-20T09:18:03.783Z,24.00
2018-07-20T09:20:30.942Z,23.80
2018-07-20T09:25:25.269Z,23.40
2018-07-20T09:30:20.011Z,23.50
2018-07-20T09:32:47.768Z,23.40
2018-07-20T09:37:42.583Z,24.30
2018-07-20T09:40:09.751Z,23.60
2018-07-20T09:42:37.486Z,23.70
2018-07-20T09:45:04.940Z,24.30
2018-07-20T09:47:32.123Z,25.10
2018-07-20T09:49:59.241Z,26.70
2018-07-20T09:52:26.467Z,26.60
2018-07-20T09:54:53.642Z,26.70
2018-07-20T09:57:20.906Z,27.00
2018-07-20T09:59:48.191Z,27.30
2018-07-20T10:02:15.455Z,27.50
2018-07-20T10:04:42.609Z,27.80
2018-07-20T10:07:09.748Z,28.10
2018-07-20T10:09:36.892Z,28.80
2018-07-20T10:12:04.071Z,29.20
2018-07-20T10:14:31.207Z,29.40
2018-07-20T10:16:58.346Z,29.50
2018-07-20T10:19:25.501Z,29.60
2018-07-20T10:21:52.769Z,30.00
2018-07-20T10:24:19.995Z,30.00
2018-07-20T10:26:47.421Z,30.70
2018-07-20T10:31:41.855Z,30.40
2018-07-20T10:34:09.000Z,30.20
2018-07-20T10:36:36.192Z,30.30
2018-07-20T10:39:06.124Z,30.00
2018-07-20T10:41:33.295Z,29.50
2018-07-20T10:44:00.498Z,30.50
2018-07-20T10:46:27.677Z,31.10
2018-07-20T10:48:54.813Z,30.90
2018-07-20T10:51:22.126Z,30.00
2018-07-20T10:53:49.363Z,29.90
2018-07-20T10:56:16.603Z,31.20
2018-07-20T10:58:43.714Z,31.20
2018-07-20T11:01:10.838Z,29.90
2018-07-20T11:03:38.000Z,30.00
2018-07-20T11:06:05.322Z,31.20
2018-07-20T11:08:32.428Z,30.50
2018-07-20T11:10:59.561Z,30.50
2018-07-20T11:13:26.729Z,30.50
2018-07-20T11:15:53.878Z,29.80
2018-07-20T11:18:21.162Z,29.90
2018-07-20T11:20:48.412Z,30.10
2018-07-20T11:23:15.931Z,30.20
2018-07-20T11:25:43.100Z,30.00
2018-07-20T11:28:10.264Z,30.60
2018-07-20T11:30:37.422Z,30.30
2018-07-20T11:33:04.583Z,30.80
2018-07-20T11:35:31.724Z,31.40
2018-07-20T11:37:58.865Z,29.40
2018-07-20T11:40:26.038Z,30.70
2018-07-20T11:42:53.275Z,29.40
2018-07-20T11:45:20.510Z,29.60
2018-07-20T11:47:47.761Z,31.30
2018-07-20T11:50:15.114Z,30.60
2018-07-20T11:52:42.282Z,30.60
2018-07-20T11:55:09.452Z,30.50
2018-07-20T11:57:36.583Z,29.70
2018-07-20T12:00:04.254Z,29.70
2018-07-20T12:02:31.378Z,30.00
2018-07-20T12:04:58.571Z,29.90
2018-07-20T12:07:25.701Z,29.50
2018-07-20T12:09:52.849Z,29.90
2018-07-20T12:12:20.190Z,29.20
2018-07-20T12:14:47.392Z,29.30
2018-07-20T12:17:14.596Z,29.60
2018-07-20T12:19:41.702Z,29.30
2018-07-20T12:22:09.146Z,29.70
2018-07-20T12:24:36.554Z,31.10
2018-07-20T12:27:03.687Z,29.90
2018-07-20T12:29:30.814Z,30.00
2018-07-20T12:31:58.114Z,29.20
2018-07-20T12:34:25.284Z,29.30
2018-07-20T12:36:52.494Z,29.70
2018-07-20T12:39:19.756Z,30.00
2018-07-20T12:41:47.396Z,30.20
2018-07-20T12:44:14.630Z,29.10
2018-07-20T12:46:41.856Z,29.30
2018-07-20T12:49:09.014Z,30.10
2018-07-20T12:51:36.122Z,29.70
2018-07-20T12:54:03.279Z,28.70
2018-07-20T12:56:30.411Z,28.90
2018-07-20T12:58:57.604Z,29.00
2018-07-20T13:01:24.762Z,29.60
2018-07-20T13:03:51.919Z,29.40
2018-07-20T13:06:19.170Z,29.50
2018-07-20T13:08:46.367Z,29.70
2018-07-20T13:11:13.670Z,29.30
2018-07-20T13:13:40.918Z,29.00
2018-07-20T13:16:08.075Z,29.50
2018-07-20T13:18:35.213Z,29.20
2018-07-20T13:21:02.351Z,29.20
2018-07-20T13:23:29.454Z,28.90
2018-07-20T13:25:56.604Z,29.30
2018-07-20T13:28:23.805Z,29.20
2018-07-20T13:30:50.988Z,28.50
2018-07-20T13:33:18.154Z,28.70
2018-07-20T13:35:45.451Z,29.40
2018-07-20T13:38:12.602Z,28.70
2018-07-20T13:40:39.800Z,29.20
2018-07-20T13:43:07.008Z,28.80
2018-07-20T13:45:34.448Z,28.90
2018-07-20T13:48:01.596Z,29.20
2018-07-20T13:50:28.750Z,29.80
2018-07-20T13:52:55.962Z,30.30
2018-07-20T13:55:23.059Z,29.30
2018-07-20T13:57:50.314Z,30.60
2018-07-20T14:00:17.610Z,29.60
2018-07-20T14:02:45.135Z,29.70
2018-07-20T14:05:12.736Z,28.80
2018-07-20T14:07:39.847Z,29.00
2018-07-20T14:10:06.998Z,29.70
2018-07-20T14:12:34.143Z,29.60
2018-07-20T14:15:01.279Z,29.50
2018-07-20T14:17:28.425Z,29.90
2018-07-20T14:19:55.545Z,30.10
2018-07-20T14:22:22.695Z,29.10
2018-07-20T14:24:49.866Z,29.80
2018-07-20T14:27:17.035Z,29.50
2018-07-20T14:29:44.223Z,29.60
2018-07-20T14:32:11.425Z,29.60
2018-07-20T14:34:38.549Z,28.70
2018-07-20T14:37:05.704Z,29.60
2018-07-20T14:39:32.865Z,29.40
2018-07-20T14:41:59.964Z,29.90
2018-07-20T14:46:54.262Z,29.40
2018-07-20T14:49:21.461Z,29.00
2018-07-20T14:51:48.844Z,29.70
2018-07-20T14:54:16.336Z,29.10
2018-07-20T14:56:43.455Z,29.10
2018-07-20T14:59:10.648Z,28.70
2018-07-20T15:01:37.840Z,29.00
2018-07-20T15:04:05.576Z,28.80
2018-07-20T15:06:32.875Z,29.10
2018-07-20T15:09:00.026Z,29.50
2018-07-20T15:11:27.150Z,29.30
2018-07-20T15:13:54.270Z,29.40
2018-07-20T15:16:21.425Z,29.80
2018-07-20T15:18:48.582Z,29.20
2018-07-20T15:21:15.689Z,29.30
2018-07-20T15:23:42.904Z,29.10
2018-07-20T15:26:10.216Z,29.80
2018-07-20T15:31:05.186Z,29.80
2018-07-20T15:33:33.485Z,29.20
2018-07-20T15:36:00.737Z,28.90
2018-07-20T15:38:27.846Z,28.80
2018-07-20T15:40:54.976Z,28.70
2018-07-20T15:43:22.107Z,28.70
2018-07-20T15:46:05.599Z,28.60
2018-07-20T15:48:16.358Z,27.60
2018-07-20T15:50:43.537Z,28.00
2018-07-20T15:55:37.961Z,28.00
2018-07-20T15:58:05.274Z,28.00
2018-07-20T16:00:32.590Z,28.50
2018-07-20T16:02:59.737Z,28.20
2018-07-20T16:05:26.894Z,28.00
2018-07-20T16:07:54.049Z,28.00
2018-07-20T16:10:21.184Z,28.60
2018-07-20T16:12:48.320Z,28.70
2018-07-20T16:15:15.534Z,29.30
2018-07-20T16:17:42.662Z,29.30
2018-07-20T16:20:10.049Z,29.40
2018-07-20T16:22:37.701Z,29.60
2018-07-20T16:25:05.179Z,29.70
2018-07-20T16:27:32.426Z,29.80
2018-07-20T16:29:59.569Z,30.10
2018-07-20T16:32:26.694Z,30.20
2018-07-20T16:34:53.814Z,30.50
2018-07-20T16:37:20.970Z,30.60
2018-07-20T16:39:48.103Z,30.70
2018-07-20T16:42:15.243Z,30.60
2018-07-20T16:44:42.369Z,30.10
2018-07-20T16:47:09.543Z,30.30
2018-07-20T16:49:36.686Z,30.40
2018-07-20T16:52:03.967Z,29.90
2018-07-20T16:54:31.134Z,30.40
2018-07-20T16:56:58.479Z,29.80
2018-07-20T16:59:25.630Z,30.00
2018-07-20T17:01:52.774Z,29.80
2018-07-20T17:04:19.920Z,30.90
2018-07-20T17:06:47.034Z,30.00
2018-07-20T17:09:14.188Z,30.50
2018-07-20T17:11:41.452Z,30.70
2018-07-20T17:14:08.785Z,30.70
2018-07-20T17:16:36.106Z,31.30
2018-07-20T17:19:03.815Z,31.10
2018-07-20T17:21:30.994Z,32.00
2018-07-20T17:23:58.506Z,31.20
2018-07-20T17:26:25.673Z,31.10
2018-07-20T17:28:52.913Z,32.30
2018-07-20T17:31:20.112Z,32.90
2018-07-20T17:33:47.284Z,33.30
2018-07-20T17:36:14.421Z,33.80
2018-07-20T17:38:41.540Z,33.80
2018-07-20T17:41:08.716Z,34.00
2018-07-20T17:43:35.922Z,34.80
2018-07-20T17:46:03.166Z,34.40
2018-07-20T17:48:30.303Z,34.20
2018-07-20T17:50:57.435Z,34.30
2018-07-20T17:53:24.582Z,34.80
2018-07-20T17:55:51.762Z,35.40
2018-07-20T17:58:18.884Z,35.80
2018-07-20T18:00:46.034Z,36.20
2018-07-20T18:03:13.314Z,37.50
2018-07-20T18:05:40.530Z,37.80
2018-07-20T18:08:07.768Z,38.20
2018-07-20T18:10:35.016Z,38.40
2018-07-20T18:13:02.302Z,38.50
2018-07-20T18:15:29.424Z,39.00
2018-07-20T18:17:56.733Z,39.20
2018-07-20T18:20:23.978Z,39.80
2018-07-20T18:22:51.123Z,40.10
2018-07-20T18:25:18.265Z,40.30
2018-07-20T18:27:45.406Z,42.00
2018-07-20T18:30:12.629Z,43.20
2018-07-20T18:32:40.303Z,44.70
2018-07-20T18:35:07.539Z,42.30
2018-07-20T18:37:34.714Z,42.70
2018-07-20T18:40:02.031Z,42.50
2018-07-20T18:42:29.208Z,42.60
2018-07-20T18:44:56.344Z,41.60
2018-07-20T18:47:23.473Z,42.20
2018-07-20T18:49:50.594Z,42.90
2018-07-20T18:52:17.770Z,44.10
2018-07-20T18:54:44.907Z,43.90
2018-07-20T18:57:12.068Z,44.70
2018-07-20T18:59:39.625Z,45.00
2018-07-20T19:02:07.294Z,46.00
2018-07-20T19:04:34.489Z,46.60
2018-07-20T19:07:01.831Z,46.90
2018-07-20T19:09:28.987Z,47.10
2018-07-20T19:11:56.136Z,46.60
2018-07-20T19:14:23.303Z,46.40
2018-07-20T19:16:50.430Z,47.00
2018-07-20T19:19:17.618Z,47.20
2018-07-20T19:21:44.749Z,48.00
2018-07-20T19:24:11.936Z,48.30
2018-07-20T19:26:39.209Z,48.60
2018-07-20T19:29:06.463Z,48.90
2018-07-20T19:31:33.804Z,49.00
2018-07-20T19:36:28.144Z,48.80
2018-07-20T19:41:22.421Z,48.90
2018-07-20T19:43:49.559Z,48.40
2018-07-20T19:46:16.751Z,48.10
2018-07-20T19:48:43.864Z,48.10
2018-07-20T19:51:11.038Z,48.00
2018-07-20T19:53:38.287Z,47.20
2018-07-20T19:56:05.545Z,46.40
2018-07-20T19:58:32.712Z,45.20
2018-07-20T20:00:59.876Z,45.00
2018-07-20T20:03:27.102Z,45.20
2018-07-20T20:05:54.229Z,45.20
2018-07-20T20:08:21.370Z,45.00
2018-07-20T20:10:48.542Z,45.00
2018-07-20T20:13:15.662Z,45.40
2018-07-20T20:15:43.015Z,45.10
2018-07-20T20:18:10.084Z,45.30
2018-07-20T20:20:37.688Z,45.20
2018-07-20T20:23:05.145Z,45.30
2018-07-20T20:25:32.462Z,45.20
2018-07-20T20:27:59.603Z,45.50
2018-07-20T20:30:26.774Z,45.60
2018-07-20T20:32:53.902Z,45.80
2018-07-20T20:35:21.022Z,45.90
2018-07-20T20:37:48.219Z,46.20
2018-07-20T20:40:15.372Z,46.20
2018-07-20T20:42:42.528Z,46.30
2018-07-20T20:45:09.850Z,46.50
2018-07-20T20:47:37.419Z,46.50
2018-07-20T20:50:05.078Z,46.60
2018-07-20T20:52:32.483Z,46.80
2018-07-20T20:54:59.701Z,47.00
2018-07-20T20:57:26.940Z,47.10
2018-07-20T20:59:54.090Z,47.20
2018-07-20T21:02:21.210Z,47.50
2018-07-20T21:04:48.330Z,47.80
2018-07-20T21:07:15.490Z,47.80
2018-07-20T21:09:42.735Z,47.80
2018-07-20T21:12:10.225Z,48.00
2018-07-20T21:14:37.307Z,48.10
2018-07-20T21:17:04.575Z,48.10
2018-07-20T21:19:31.821Z,48.20
2018-07-20T21:21:59.063Z,48.20
2018-07-20T21:24:26.187Z,48.40
2018-07-20T21:29:20.482Z,48.40
2018-07-20T21:31:47.602Z,48.70
2018-07-20T21:34:14.764Z,48.60
2018-07-20T21:36:41.891Z,48.80
2018-07-20T21:39:11.076Z,48.90
2018-07-20T21:41:38.606Z,49.10
2018-07-20T21:44:05.913Z,49.30
2018-07-20T21:46:33.167Z,49.50
2018-07-20T21:49:00.287Z,49.60
2018-07-20T21:51:27.430Z,49.70
2018-07-20T21:53:54.566Z,49.80
2018-07-20T21:56:21.675Z,50.10
2018-07-20T21:58:48.791Z,50.40
2018-07-20T22:01:15.957Z,50.30
2018-07-20T22:03:43.074Z,50.30
2018-07-20T22:06:10.302Z,51.30
2018-07-20T22:08:37.499Z,50.80
2018-07-20T22:11:04.782Z,51.00
2018-07-20T22:13:32.000Z,50.80
2018-07-20T22:15:59.162Z,50.90
2018-07-20T22:18:26.315Z,50.90
2018-07-20T22:20:53.462Z,50.90
2018-07-20T22:23:20.792Z,50.90
2018-07-20T22:25:47.871Z,50.90
2018-07-20T22:28:14.991Z,50.80
2018-07-20T22:30:42.188Z,50.90
2018-07-20T22:33:09.472Z,51.00
2018-07-20T22:35:37.193Z,51.00
2018-07-20T22:38:04.480Z,51.00
2018-07-20T22:40:31.856Z,51.00
2018-07-20T22:42:59.034Z,51.00
2018-07-20T22:45:26.168Z,51.20
2018-07-20T22:47:53.702Z,51.40
2018-07-20T22:50:20.825Z,51.50
2018-07-20T22:52:48.002Z,51.50
2018-07-20T22:55:15.140Z,51.60
2018-07-20T22:57:42.308Z,51.40
2018-07-20T23:00:09.568Z,51.60
2018-07-20T23:02:36.773Z,51.60
2018-07-20T23:05:04.426Z,51.60
2018-07-20T23:07:31.707Z,52.00
2018-07-20T23:09:58.817Z,52.10
2018-07-20T23:12:25.947Z,52.00
2018-07-20T23:14:53.075Z,52.10
2018-07-20T23:17:20.230Z,52.50
2018-07-20T23:19:47.363Z,52.80
2018-07-20T23:22:14.471Z,53.10
2018-07-20T23:24:42.537Z,53.30
2018-07-20T23:27:09.652Z,53.50
2018-07-20T23:29:36.869Z,53.20
2018-07-20T23:32:04.073Z,53.40
2018-07-20T23:34:31.220Z,53.40
2018-07-20T23:36:58.315Z,53.50
2018-07-20T23:39:25.427Z,53.50
2018-07-20T23:41:52.543Z,53.50
2018-07-20T23:44:19.670Z,53.80
2018-07-20T23:46:46.783Z,53.50
2018-07-20T23:49:13.900Z,53.20
2018-07-20T23:51:41.046Z,53.20
2018-07-20T23:54:08.265Z,53.20
2018-07-20T23:56:35.526Z,53.30
